Terminal Aerodrome Forecast
Issued by NWS Shreveport, LA

Home | Current Version | Previous Version | Text Only | Print | Product List | Glossary On
Versions: 1 2 3 4 5 6 7 8 9 10 11 12 13 14
099
FTUS44 KSHV 271721
TAFMLU
TAF
KMLU 271721Z 2718/2818 25006KT P6SM SCT025 SCT050
      TEMPO 2718/2722 BKN025
     FM272200 23008KT P6SM SCT050 SCT130
     FM280100 19003KT P6SM SCT050 BKN250
     FM281400 25009KT P6SM SCT250=

USA.gov is the U.S. government's official web portal to all federal, state and local government web resources and services.